Time;durP1;ratioP1;P1;durP2;ratioP2;P2;SDS_P1;SDS_P2;PMS_P1;PMS_P2;Temp;Humidity;BMP_temperature;BMP_pressure;BME280_temperature;BME280_humidity;BME280_pressure;Samples;Min_cycle;Max_cycle;Signal;HPM_P1;HPM_P2
2023/09/14 00:00:20;;;;;;;3.65;1.55;;;;;;;;;;4975165;28;20425;-84
2023/09/14 00:02:46;;;;;;;2.58;1.38;;;;;;;;;;4981177;28;20061;-85
2023/09/14 00:05:11;;;;;;;4.80;1.60;;;;;;;;;;4995759;28;20034;-84
2023/09/14 00:07:36;;;;;;;4.88;1.58;;;;;;;;;;4990164;28;20033;-85
2023/09/14 00:10:02;;;;;;;4.65;1.55;;;;;;;;;;4974183;28;20128;-84
2023/09/14 00:12:28;;;;;;;3.03;1.45;;;;;;;;;;4981023;28;20058;-85
2023/09/14 00:14:53;;;;;;;3.53;1.40;;;;;;;;;;4985108;28;20042;-85
2023/09/14 00:17:19;;;;;;;4.15;1.50;;;;;;;;;;4975156;28;20030;-80
2023/09/14 00:19:45;;;;;;;2.88;1.77;;;;;;;;;;4978206;28;20061;-80
2023/09/14 00:22:10;;;;;;;4.47;1.55;;;;;;;;;;4974407;28;20030;-80
2023/09/14 00:24:36;;;;;;;6.47;2.05;;;;;;;;;;4972605;28;20383;-80
2023/09/14 00:27:02;;;;;;;3.53;1.50;;;;;;;;;;4975961;28;20038;-80
2023/09/14 00:29:27;;;;;;;4.28;1.70;;;;;;;;;;4970148;28;20041;-80
2023/09/14 00:31:52;;;;;;;4.18;1.50;;;;;;;;;;4989154;28;20057;-80
2023/09/14 00:34:18;;;;;;;3.88;1.65;;;;;;;;;;4965109;28;20027;-89
2023/09/14 00:36:43;;;;;;;3.78;1.60;;;;;;;;;;4983553;28;20398;-85
2023/09/14 00:39:10;;;;;;;4.10;1.30;;;;;;;;;;4965253;28;20033;-85
2023/09/14 00:41:35;;;;;;;4.28;1.60;;;;;;;;;;4973410;28;20501;-84
2023/09/14 00:44:00;;;;;;;4.35;1.48;;;;;;;;;;4967543;28;20034;-85
2023/09/14 00:46:26;;;;;;;3.35;1.23;;;;;;;;;;4990967;28;20025;-87
2023/09/14 00:48:52;;;;;;;3.80;1.70;;;;;;;;;;4971663;28;20490;-87
2023/09/14 00:51:18;;;;;;;3.47;1.33;;;;;;;;;;4971149;28;20037;-88
2023/09/14 00:53:44;;;;;;;3.63;1.60;;;;;;;;;;4975671;28;20446;-80
2023/09/14 00:56:11;;;;;;;3.08;1.30;;;;;;;;;;4973952;28;20026;-80
2023/09/14 00:58:37;;;;;;;3.40;1.60;;;;;;;;;;4962704;28;20030;-80
2023/09/14 01:01:03;;;;;;;4.20;1.50;;;;;;;;;;4985501;28;20030;-80
2023/09/14 01:03:30;;;;;;;2.90;1.40;;;;;;;;;;4985913;28;20471;-80
2023/09/14 01:05:55;;;;;;;3.97;1.60;;;;;;;;;;4967346;28;20042;-80
2023/09/14 01:08:21;;;;;;;2.88;1.38;;;;;;;;;;4972604;28;20030;-80
2023/09/14 01:10:46;;;;;;;2.90;1.50;;;;;;;;;;4976973;28;20474;-80
2023/09/14 01:13:45;;;;;;;4.57;1.40;;;;;;;;;;4978097;28;20117;-80
2023/09/14 01:16:16;;;;;;;3.45;1.30;;;;;;;;;;4988323;28;20035;-80
2023/09/14 01:18:49;;;;;;;3.40;1.38;;;;;;;;;;4983723;28;20442;-80
2023/09/14 01:21:35;;;;;;;5.15;1.80;;;;;;;;;;4971614;28;20018;-80
2023/09/14 01:24:11;;;;;;;2.60;1.40;;;;;;;;;;4978954;28;20387;-80
2023/09/14 01:26:37;;;;;;;3.35;1.60;;;;;;;;;;4993690;28;20041;-80
2023/09/14 01:29:04;;;;;;;3.13;1.58;;;;;;;;;;4983410;28;20034;-80
2023/09/14 01:31:30;;;;;;;3.22;1.55;;;;;;;;;;4967280;28;20476;-80
2023/09/14 01:33:56;;;;;;;5.15;1.50;;;;;;;;;;4972016;28;20142;-81
2023/09/14 01:36:33;;;;;;;2.90;1.52;;;;;;;;;;4983907;28;20050;-80
2023/09/14 01:39:00;;;;;;;3.92;1.60;;;;;;;;;;4970165;28;20033;-80
2023/09/14 01:41:26;;;;;;;5.05;1.70;;;;;;;;;;4986537;28;20108;-80
2023/09/14 01:43:53;;;;;;;3.47;1.55;;;;;;;;;;4970426;28;20026;-80
2023/09/14 01:46:19;;;;;;;3.95;1.65;;;;;;;;;;4964789;28;20364;-80
2023/09/14 01:48:45;;;;;;;4.10;2.10;;;;;;;;;;4989425;28;20033;-80
2023/09/14 01:51:11;;;;;;;3.03;1.50;;;;;;;;;;4979122;28;20031;-80
2023/09/14 01:53:37;;;;;;;4.57;1.35;;;;;;;;;;4974548;28;20038;-80
2023/09/14 01:56:02;;;;;;;3.25;1.50;;;;;;;;;;4963280;28;20383;-89
2023/09/14 01:58:29;;;;;;;2.80;1.50;;;;;;;;;;4984259;28;20027;-88
2023/09/14 02:00:56;;;;;;;4.20;1.60;;;;;;;;;;4969268;28;20493;-88
2023/09/14 02:03:21;;;;;;;3.70;1.40;;;;;;;;;;4989924;28;20033;-80
2023/09/14 02:05:56;;;;;;;4.43;1.75;;;;;;;;;;4991856;28;20390;-80
2023/09/14 02:08:22;;;;;;;4.22;1.40;;;;;;;;;;4962662;28;20038;-79
2023/09/14 02:10:47;;;;;;;3.45;1.80;;;;;;;;;;4990909;28;20030;-80
2023/09/14 02:13:12;;;;;;;5.25;1.60;;;;;;;;;;4972630;28;20066;-80
2023/09/14 02:15:38;;;;;;;3.60;1.30;;;;;;;;;;4968869;28;20114;-80
2023/09/14 02:18:03;;;;;;;3.03;1.50;;;;;;;;;;4989220;28;20062;-80
2023/09/14 02:20:29;;;;;;;3.45;1.50;;;;;;;;;;4992568;28;20488;-80
2023/09/14 02:22:54;;;;;;;2.75;1.42;;;;;;;;;;4966718;28;20084;-80
2023/09/14 02:25:19;;;;;;;2.63;1.50;;;;;;;;;;4972712;28;20030;-79
2023/09/14 02:27:44;;;;;;;5.65;1.70;;;;;;;;;;4985008;28;20019;-81
2023/09/14 02:30:10;;;;;;;3.20;1.58;;;;;;;;;;4984886;28;20055;-78
2023/09/14 02:32:35;;;;;;;4.07;1.48;;;;;;;;;;4984344;28;20030;-79
2023/09/14 02:35:01;;;;;;;3.78;1.52;;;;;;;;;;4964922;28;20027;-79
2023/09/14 02:37:26;;;;;;;3.13;1.30;;;;;;;;;;4966598;28;20065;-80
2023/09/14 02:39:52;;;;;;;2.80;1.50;;;;;;;;;;4967474;28;20034;-80
2023/09/14 02:42:17;;;;;;;2.70;1.30;;;;;;;;;;4985752;28;20049;-80
2023/09/14 02:44:43;;;;;;;2.70;1.20;;;;;;;;;;4962564;28;20485;-79
2023/09/14 02:47:09;;;;;;;3.35;1.50;;;;;;;;;;4990262;28;20065;-79
2023/09/14 02:49:34;;;;;;;2.80;1.30;;;;;;;;;;4989432;28;20494;-79
2023/09/14 02:51:59;;;;;;;2.42;1.40;;;;;;;;;;4967913;28;20034;-80
2023/09/14 02:54:25;;;;;;;2.22;1.30;;;;;;;;;;5000509;28;20022;-79
2023/09/14 02:56:50;;;;;;;4.10;1.63;;;;;;;;;;4980000;28;20033;-80
2023/09/14 02:59:16;;;;;;;3.17;1.50;;;;;;;;;;4990305;28;20042;-79
2023/09/14 03:01:44;;;;;;;4.43;1.45;;;;;;;;;;4968750;28;20487;-83
2023/09/14 03:04:09;;;;;;;3.58;1.50;;;;;;;;;;4978760;28;20040;-80
2023/09/14 03:06:35;;;;;;;3.75;1.48;;;;;;;;;;4978162;28;20029;-86
2023/09/14 03:09:00;;;;;;;2.75;1.40;;;;;;;;;;4976093;28;20034;-88
2023/09/14 03:11:26;;;;;;;3.33;1.60;;;;;;;;;;4970548;28;20376;-86
2023/09/14 03:13:51;;;;;;;3.53;1.48;;;;;;;;;;4987474;28;20117;-88
2023/09/14 03:16:17;;;;;;;2.70;1.40;;;;;;;;;;4971586;28;20035;-88
2023/09/14 03:18:42;;;;;;;2.65;1.33;;;;;;;;;;4971001;28;20022;-88
2023/09/14 03:21:21;;;;;;;2.53;1.30;;;;;;;;;;4987626;28;20042;-86
2023/09/14 03:23:46;;;;;;;2.83;1.30;;;;;;;;;;4981825;28;20035;-89
2023/09/14 03:26:13;;;;;;;3.63;1.40;;;;;;;;;;4976151;28;20041;-88
2023/09/14 03:28:39;;;;;;;4.43;1.50;;;;;;;;;;4972601;28;20119;-88
2023/09/14 03:31:04;;;;;;;2.53;1.50;;;;;;;;;;4966539;28;20050;-88
2023/09/14 03:33:29;;;;;;;3.80;1.60;;;;;;;;;;4993374;28;20081;-87
2023/09/14 03:35:55;;;;;;;2.47;1.40;;;;;;;;;;4974049;28;20030;-87
2023/09/14 03:38:20;;;;;;;4.90;1.70;;;;;;;;;;4975370;28;20037;-88
2023/09/14 03:40:46;;;;;;;3.88;1.30;;;;;;;;;;4967559;28;20382;-88
2023/09/14 03:43:11;;;;;;;4.18;1.40;;;;;;;;;;4971712;28;20455;-88
2023/09/14 03:45:37;;;;;;;2.28;1.30;;;;;;;;;;4991355;28;20033;-88
2023/09/14 03:48:04;;;;;;;2.95;1.50;;;;;;;;;;4972131;28;20026;-84
2023/09/14 03:50:30;;;;;;;3.20;1.55;;;;;;;;;;4968074;28;20029;-88
2023/09/14 03:52:55;;;;;;;4.57;1.63;;;;;;;;;;4992566;28;20030;-89
2023/09/14 03:55:21;;;;;;;3.30;1.50;;;;;;;;;;4981434;28;20069;-88
2023/09/14 03:57:47;;;;;;;3.70;1.77;;;;;;;;;;4990135;28;20031;-88
2023/09/14 04:00:15;;;;;;;4.30;1.60;;;;;;;;;;4983313;28;20109;-86
2023/09/14 04:02:42;;;;;;;6.93;2.03;;;;;;;;;;4966226;28;20045;-88
2023/09/14 04:05:15;;;;;;;3.35;1.70;;;;;;;;;;4965053;28;20041;-87
2023/09/14 04:07:41;;;;;;;5.32;1.88;;;;;;;;;;4988927;28;20470;-86
2023/09/14 04:10:10;;;;;;;3.97;1.63;;;;;;;;;;4991237;28;20032;-87
2023/09/14 04:12:37;;;;;;;5.78;2.10;;;;;;;;;;4970360;28;20029;-87
2023/09/14 04:15:02;;;;;;;3.42;1.60;;;;;;;;;;4984374;28;20053;-83
2023/09/14 04:17:28;;;;;;;4.60;1.58;;;;;;;;;;4968675;28;20116;-83
2023/09/14 04:19:53;;;;;;;4.35;1.73;;;;;;;;;;4970004;28;20594;-84
2023/09/14 04:22:19;;;;;;;4.10;1.60;;;;;;;;;;4965696;28;20418;-84
2023/09/14 04:24:44;;;;;;;6.25;1.90;;;;;;;;;;4971263;28;20101;-84
2023/09/14 04:27:09;;;;;;;4.20;1.88;;;;;;;;;;4966019;28;20029;-83
2023/09/14 04:29:35;;;;;;;4.20;1.65;;;;;;;;;;4983783;28;20019;-84
2023/09/14 04:32:00;;;;;;;4.68;1.60;;;;;;;;;;4966318;28;20031;-83
2023/09/14 04:34:26;;;;;;;2.90;1.40;;;;;;;;;;4966336;28;20080;-84
2023/09/14 04:36:52;;;;;;;4.78;1.40;;;;;;;;;;4985772;28;20029;-83
2023/09/14 04:39:17;;;;;;;6.30;1.55;;;;;;;;;;4959792;28;20026;-83
2023/09/14 04:41:42;;;;;;;4.05;1.63;;;;;;;;;;4984729;28;20038;-84
2023/09/14 04:44:08;;;;;;;2.97;1.23;;;;;;;;;;4965664;28;20049;-83
2023/09/14 04:46:33;;;;;;;2.33;1.10;;;;;;;;;;4968632;28;20042;-84
2023/09/14 04:48:59;;;;;;;3.40;1.20;;;;;;;;;;4993807;28;20448;-83
2023/09/14 04:51:24;;;;;;;3.65;1.60;;;;;;;;;;4971465;28;20041;-84
2023/09/14 04:53:49;;;;;;;3.80;1.52;;;;;;;;;;4975079;28;20396;-82
2023/09/14 04:56:15;;;;;;;3.88;1.45;;;;;;;;;;4968023;28;20462;-83
2023/09/14 04:58:40;;;;;;;4.15;1.45;;;;;;;;;;4986975;28;20380;-83
2023/09/14 05:01:05;;;;;;;4.18;1.63;;;;;;;;;;4989681;28;20065;-83
2023/09/14 05:03:31;;;;;;;2.63;1.40;;;;;;;;;;4966542;28;20085;-83
2023/09/14 05:05:56;;;;;;;3.38;1.40;;;;;;;;;;4972375;28;20029;-84
2023/09/14 05:08:22;;;;;;;3.95;1.50;;;;;;;;;;4974943;28;20026;-84
2023/09/14 05:10:49;;;;;;;5.70;1.70;;;;;;;;;;4966726;28;20411;-84
2023/09/14 05:13:15;;;;;;;3.95;1.40;;;;;;;;;;4985300;28;20090;-84
2023/09/14 05:15:40;;;;;;;4.18;1.45;;;;;;;;;;4962713;28;20027;-83
2023/09/14 05:18:05;;;;;;;5.20;1.58;;;;;;;;;;4990023;28;20021;-80
2023/09/14 05:20:31;;;;;;;3.75;1.80;;;;;;;;;;4950929;28;20038;-79
2023/09/14 05:22:56;;;;;;;5.03;1.85;;;;;;;;;;4981276;28;20034;-79
2023/09/14 05:25:25;;;;;;;4.57;1.70;;;;;;;;;;4984094;28;20551;-84
2023/09/14 05:27:51;;;;;;;5.35;1.90;;;;;;;;;;4985792;28;20026;-84
2023/09/14 05:30:21;;;;;;;5.03;1.90;;;;;;;;;;4975887;28;20047;-83
2023/09/14 05:32:47;;;;;;;3.45;1.70;;;;;;;;;;4966576;28;20033;-83
2023/09/14 05:35:13;;;;;;;5.47;1.90;;;;;;;;;;4983334;28;20027;-86
2023/09/14 05:37:38;;;;;;;8.65;2.25;;;;;;;;;;4982885;28;20037;-87
2023/09/14 05:40:10;;;;;;;5.05;1.75;;;;;;;;;;4992275;28;20034;-87
2023/09/14 05:42:37;;;;;;;4.90;2.00;;;;;;;;;;4979841;28;20030;-88
2023/09/14 05:45:04;;;;;;;5.13;1.83;;;;;;;;;;4985821;28;20023;-88
2023/09/14 05:47:29;;;;;;;6.10;2.00;;;;;;;;;;4987133;28;20110;-87
2023/09/14 05:49:55;;;;;;;5.35;2.00;;;;;;;;;;4974655;28;20173;-88
2023/09/14 05:52:20;;;;;;;6.95;2.33;;;;;;;;;;4962380;28;20104;-88
2023/09/14 05:54:45;;;;;;;4.95;1.90;;;;;;;;;;4983706;28;20188;-88
2023/09/14 05:57:11;;;;;;;5.47;1.95;;;;;;;;;;4989239;28;20034;-88
2023/09/14 05:59:37;;;;;;;6.20;2.42;;;;;;;;;;4976835;28;20541;-87
2023/09/14 06:02:03;;;;;;;5.30;2.20;;;;;;;;;;4981907;28;20041;-88
2023/09/14 06:04:29;;;;;;;4.38;1.90;;;;;;;;;;4988217;28;20033;-87
2023/09/14 06:06:54;;;;;;;5.95;2.53;;;;;;;;;;4966221;28;20034;-88
2023/09/14 06:09:19;;;;;;;6.40;2.20;;;;;;;;;;4981145;28;20034;-87
2023/09/14 06:11:45;;;;;;;7.93;2.28;;;;;;;;;;4976502;28;20466;-88
2023/09/14 06:14:10;;;;;;;5.70;2.30;;;;;;;;;;4986888;28;20081;-88
2023/09/14 06:16:36;;;;;;;8.50;3.03;;;;;;;;;;4967402;28;20034;-78
2023/09/14 06:19:02;;;;;;;6.60;2.20;;;;;;;;;;4987873;28;20046;-80
2023/09/14 06:21:29;;;;;;;6.65;2.35;;;;;;;;;;4984799;28;20026;-79
2023/09/14 06:23:54;;;;;;;7.88;2.13;;;;;;;;;;4965890;28;20026;-79
2023/09/14 06:26:19;;;;;;;6.07;2.17;;;;;;;;;;4971351;28;20371;-84
2023/09/14 06:28:45;;;;;;;7.88;2.60;;;;;;;;;;4992364;28;20022;-83
2023/09/14 06:31:10;;;;;;;7.60;2.60;;;;;;;;;;4978163;28;20028;-84
2023/09/14 06:33:36;;;;;;;6.18;2.85;;;;;;;;;;5003074;28;20387;-83
2023/09/14 06:36:01;;;;;;;8.85;3.15;;;;;;;;;;4984005;28;20027;-84
2023/09/14 06:38:27;;;;;;;7.15;3.08;;;;;;;;;;4989429;28;20038;-84
2023/09/14 06:40:52;;;;;;;5.75;2.78;;;;;;;;;;4989475;28;20019;-84
2023/09/14 06:43:17;;;;;;;6.38;3.03;;;;;;;;;;4970872;28;20069;-84
2023/09/14 06:45:43;;;;;;;6.43;2.85;;;;;;;;;;4973663;28;20030;-88
2023/09/14 06:48:08;;;;;;;8.68;3.22;;;;;;;;;;4975736;28;20031;-88
2023/09/14 06:50:34;;;;;;;7.00;2.95;;;;;;;;;;4973218;28;20100;-89
2023/09/14 06:52:59;;;;;;;6.78;2.92;;;;;;;;;;4974684;28;20034;-88
2023/09/14 06:55:24;;;;;;;7.35;2.90;;;;;;;;;;4973713;28;20030;-86
2023/09/14 06:57:50;;;;;;;4.97;2.70;;;;;;;;;;4970533;28;20058;-88
2023/09/14 07:00:20;;;;;;;7.10;2.80;;;;;;;;;;4973096;28;20505;-86
2023/09/14 07:02:46;;;;;;;9.10;2.95;;;;;;;;;;4966788;28;20478;-86
2023/09/14 07:05:11;;;;;;;6.80;2.50;;;;;;;;;;4974168;28;20041;-87
2023/09/14 07:07:38;;;;;;;6.15;2.75;;;;;;;;;;4984241;28;20141;-78
2023/09/14 07:10:05;;;;;;;7.72;2.83;;;;;;;;;;4988261;28;20109;-83
2023/09/14 07:12:30;;;;;;;7.35;2.63;;;;;;;;;;4968937;28;20407;-83
2023/09/14 07:14:55;;;;;;;8.43;2.70;;;;;;;;;;4992910;28;20042;-85
2023/09/14 07:17:21;;;;;;;5.90;2.75;;;;;;;;;;4968041;28;20060;-84
2023/09/14 07:19:46;;;;;;;6.43;2.75;;;;;;;;;;4972099;28;20473;-85
2023/09/14 07:22:11;;;;;;;5.30;2.40;;;;;;;;;;4975097;28;20037;-84
2023/09/14 07:24:36;;;;;;;7.40;3.40;;;;;;;;;;4968877;28;20029;-84
2023/09/14 07:27:02;;;;;;;6.15;2.45;;;;;;;;;;4993906;28;20034;-84
2023/09/14 07:29:28;;;;;;;8.43;3.50;;;;;;;;;;4986792;28;20031;-84
2023/09/14 07:31:54;;;;;;;6.88;3.33;;;;;;;;;;4982613;28;20589;-84
2023/09/14 07:34:20;;;;;;;5.80;3.00;;;;;;;;;;4971153;28;20529;-84
2023/09/14 07:36:45;;;;;;;8.30;3.45;;;;;;;;;;4989904;28;20027;-84
2023/09/14 07:39:11;;;;;;;6.47;3.03;;;;;;;;;;4992603;28;20062;-84
2023/09/14 07:41:36;;;;;;;11.93;4.13;;;;;;;;;;4981847;28;20030;-83
2023/09/14 07:44:02;;;;;;;6.78;3.75;;;;;;;;;;4983043;28;20023;-82
2023/09/14 07:46:27;;;;;;;4.75;2.67;;;;;;;;;;4978407;28;20054;-84
2023/09/14 07:48:52;;;;;;;9.07;3.70;;;;;;;;;;4983483;28;20081;-84
2023/09/14 07:51:18;;;;;;;7.20;3.20;;;;;;;;;;4979432;28;20101;-85
2023/09/14 07:53:43;;;;;;;8.18;3.65;;;;;;;;;;4975708;28;20034;-84
2023/09/14 07:56:08;;;;;;;8.90;4.47;;;;;;;;;;4973752;28;20460;-80
2023/09/14 07:58:34;;;;;;;8.40;3.67;;;;;;;;;;4992938;28;20398;-79
2023/09/14 08:00:59;;;;;;;9.30;3.47;;;;;;;;;;4976448;28;20411;-80
2023/09/14 08:03:28;;;;;;;7.53;3.33;;;;;;;;;;4995714;28;20038;-78
2023/09/14 08:05:54;;;;;;;8.02;3.33;;;;;;;;;;4970200;28;20478;-79
2023/09/14 08:08:19;;;;;;;7.15;3.13;;;;;;;;;;4971412;28;20026;-85
2023/09/14 08:10:52;;;;;;;5.40;3.03;;;;;;;;;;4968364;28;20499;-85
2023/09/14 08:13:19;;;;;;;6.68;3.58;;;;;;;;;;4967756;28;20406;-85
2023/09/14 08:15:44;;;;;;;8.60;3.50;;;;;;;;;;4991263;28;20030;-86
2023/09/14 08:18:10;;;;;;;7.70;4.00;;;;;;;;;;4975298;28;20129;-84
2023/09/14 08:20:39;;;;;;;9.80;3.70;;;;;;;;;;4978609;28;20145;-84
2023/09/14 08:23:05;;;;;;;8.00;3.45;;;;;;;;;;4967237;28;20026;-85
2023/09/14 08:25:31;;;;;;;8.95;3.40;;;;;;;;;;4979135;28;20030;-86
2023/09/14 08:27:56;;;;;;;6.13;3.13;;;;;;;;;;4976047;28;20088;-91
2023/09/14 08:30:22;;;;;;;8.00;3.30;;;;;;;;;;4976555;28;20438;-90
2023/09/14 08:32:48;;;;;;;9.77;3.30;;;;;;;;;;4979123;28;20116;-87
2023/09/14 08:35:24;;;;;;;7.28;3.17;;;;;;;;;;4984516;28;20136;-87
2023/09/14 08:37:52;;;;;;;6.72;3.10;;;;;;;;;;4987238;28;20027;-91
2023/09/14 08:40:18;;;;;;;11.18;3.53;;;;;;;;;;4986655;28;20050;-90
2023/09/14 08:42:54;;;;;;;7.05;3.58;;;;;;;;;;4972108;28;20030;-83
2023/09/14 08:45:30;;;;;;;8.38;3.42;;;;;;;;;;4981590;28;20022;-84
2023/09/14 08:47:58;;;;;;;7.18;3.22;;;;;;;;;;4976621;28;20125;-84
2023/09/14 08:50:26;;;;;;;6.47;3.10;;;;;;;;;;4990029;28;20030;-84
2023/09/14 08:52:52;;;;;;;7.35;3.90;;;;;;;;;;4964583;28;20053;-84
2023/09/14 08:55:19;;;;;;;9.75;4.20;;;;;;;;;;4985547;28;20054;-84
2023/09/14 08:57:45;;;;;;;8.68;3.88;;;;;;;;;;4986851;28;20026;-84
2023/09/14 09:00:15;;;;;;;12.57;5.20;;;;;;;;;;4981402;28;20026;-84
2023/09/14 09:02:52;;;;;;;11.05;4.40;;;;;;;;;;4981739;28;20026;-83
2023/09/14 09:05:19;;;;;;;10.18;4.57;;;;;;;;;;4989793;28;20022;-83
2023/09/14 09:07:50;;;;;;;10.68;4.72;;;;;;;;;;4968822;28;20038;-84
2023/09/14 09:10:27;;;;;;;9.90;5.32;;;;;;;;;;4981702;28;20037;-84
2023/09/14 09:13:00;;;;;;;8.52;4.65;;;;;;;;;;4988830;28;20058;-83
2023/09/14 09:15:27;;;;;;;12.15;6.15;;;;;;;;;;4989305;28;20030;-83
2023/09/14 09:18:05;;;;;;;10.27;5.47;;;;;;;;;;4972734;28;20022;-84
2023/09/14 09:20:32;;;;;;;13.38;5.93;;;;;;;;;;4999173;28;20030;-83
2023/09/14 09:23:01;;;;;;;12.25;6.43;;;;;;;;;;4966591;28;20053;-83
2023/09/14 09:25:31;;;;;;;11.77;5.35;;;;;;;;;;4973475;28;20528;-78
2023/09/14 09:28:00;;;;;;;12.55;5.65;;;;;;;;;;4986710;28;20477;-79
2023/09/14 09:30:33;;;;;;;9.80;5.07;;;;;;;;;;4976441;28;20026;-79
2023/09/14 09:32:59;;;;;;;10.38;4.75;;;;;;;;;;4972889;28;20486;-80
2023/09/14 09:35:26;;;;;;;10.15;5.10;;;;;;;;;;4965920;28;20030;-79
2023/09/14 09:37:54;;;;;;;10.77;5.18;;;;;;;;;;4976286;28;20026;-79
2023/09/14 09:40:26;;;;;;;8.85;4.60;;;;;;;;;;4971661;28;20111;-79
2023/09/14 09:42:52;;;;;;;8.10;3.63;;;;;;;;;;4970944;28;20486;-80
2023/09/14 09:45:23;;;;;;;6.97;3.67;;;;;;;;;;4992435;28;20030;-79
2023/09/14 09:47:49;;;;;;;7.00;3.30;;;;;;;;;;4971480;28;20381;-80
2023/09/14 09:50:20;;;;;;;5.60;2.80;;;;;;;;;;4975441;28;20030;-79
2023/09/14 09:52:47;;;;;;;6.18;3.17;;;;;;;;;;4975794;28;20378;-85
2023/09/14 09:55:17;;;;;;;8.02;3.42;;;;;;;;;;4967072;28;20125;-85
2023/09/14 09:57:52;;;;;;;4.50;2.65;;;;;;;;;;4967212;28;20030;-84
2023/09/14 10:00:19;;;;;;;7.78;3.35;;;;;;;;;;4967173;28;20475;-84
2023/09/14 10:02:46;;;;;;;7.03;3.55;;;;;;;;;;4965896;28;20384;-85
2023/09/14 10:05:12;;;;;;;7.03;3.88;;;;;;;;;;4969198;28;20027;-84
2023/09/14 10:07:41;;;;;;;5.50;2.50;;;;;;;;;;4988602;28;20029;-84
2023/09/14 10:10:11;;;;;;;10.38;4.03;;;;;;;;;;4965551;28;20160;-84
2023/09/14 10:12:41;;;;;;;10.70;4.38;;;;;;;;;;4974295;28;20113;-84
2023/09/14 10:15:07;;;;;;;5.15;2.75;;;;;;;;;;4985718;28;20031;-85
2023/09/14 10:17:34;;;;;;;4.72;2.35;;;;;;;;;;4983187;28;20081;-84
2023/09/14 10:20:08;;;;;;;5.22;2.28;;;;;;;;;;4974569;28;20108;-79
2023/09/14 10:22:36;;;;;;;5.25;2.72;;;;;;;;;;4967262;28;20293;-80
2023/09/14 10:25:04;;;;;;;6.28;3.53;;;;;;;;;;4968745;28;20031;-80
2023/09/14 10:27:30;;;;;;;6.50;2.97;;;;;;;;;;4990511;28;20032;-80
2023/09/14 10:29:57;;;;;;;7.55;3.55;;;;;;;;;;4976880;28;20174;-80
2023/09/14 10:32:24;;;;;;;6.90;4.10;;;;;;;;;;4989300;28;20493;-80
2023/09/14 10:34:50;;;;;;;7.00;3.33;;;;;;;;;;4966866;28;20026;-80
2023/09/14 10:37:18;;;;;;;5.90;3.13;;;;;;;;;;4969429;28;20034;-80
2023/09/14 10:39:45;;;;;;;6.47;3.20;;;;;;;;;;4970285;28;20391;-80
2023/09/14 10:42:10;;;;;;;6.57;3.20;;;;;;;;;;4969718;28;20093;-80
2023/09/14 10:44:36;;;;;;;6.45;3.33;;;;;;;;;;4963387;28;20475;-80
2023/09/14 10:47:03;;;;;;;7.40;3.10;;;;;;;;;;4969019;28;20038;-81
2023/09/14 10:49:31;;;;;;;6.03;3.33;;;;;;;;;;5001646;28;20399;-79
2023/09/14 10:51:57;;;;;;;9.70;3.58;;;;;;;;;;4990536;28;20113;-79
2023/09/14 10:54:25;;;;;;;6.72;2.90;;;;;;;;;;4990286;28;20133;-79
2023/09/14 10:56:59;;;;;;;5.57;2.92;;;;;;;;;;4986460;28;20041;-79
2023/09/14 10:59:50;;;;;;;3.83;2.35;;;;;;;;;;4974284;28;20393;-81
2023/09/14 11:02:45;;;;;;;6.50;3.25;;;;;;;;;;4980044;28;20034;-80
2023/09/14 11:05:24;;;;;;;5.13;2.80;;;;;;;;;;4959183;28;20039;-80
2023/09/14 11:08:02;;;;;;;7.00;3.60;;;;;;;;;;4984556;28;20034;-80
2023/09/14 11:10:28;;;;;;;6.03;3.20;;;;;;;;;;4967244;28;20394;-80
2023/09/14 11:13:19;;;;;;;8.27;3.10;;;;;;;;;;4989553;28;20026;-80
2023/09/14 11:15:46;;;;;;;5.10;3.15;;;;;;;;;;4971529;28;20031;-80
2023/09/14 11:18:19;;;;;;;5.70;2.80;;;;;;;;;;4996169;28;20084;-80
2023/09/14 11:20:45;;;;;;;6.05;2.90;;;;;;;;;;4985397;28;20510;-80
2023/09/14 11:23:11;;;;;;;4.45;2.50;;;;;;;;;;4975363;28;20379;-80
2023/09/14 11:25:41;;;;;;;6.75;2.97;;;;;;;;;;4968843;28;20026;-80
2023/09/14 11:28:21;;;;;;;5.50;2.65;;;;;;;;;;4989721;28;20045;-80
2023/09/14 11:30:47;;;;;;;5.32;2.47;;;;;;;;;;4979414;28;20041;-80
2023/09/14 11:33:48;;;;;;;6.55;2.45;;;;;;;;;;4973605;28;20049;-81
2023/09/14 11:36:53;;;;;;;5.68;2.30;;;;;;;;;;4965822;28;20026;-81
2023/09/14 11:39:25;;;;;;;5.05;2.65;;;;;;;;;;4962635;28;20052;-81
2023/09/14 11:41:52;;;;;;;6.07;2.63;;;;;;;;;;4969213;28;20542;-80
2023/09/14 11:44:49;;;;;;;4.55;2.08;;;;;;;;;;4995693;28;20019;-81
2023/09/14 11:47:21;;;;;;;5.55;2.50;;;;;;;;;;4970953;28;20043;-80
2023/09/14 11:49:49;;;;;;;5.50;2.45;;;;;;;;;;4970363;28;20049;-81
2023/09/14 11:52:21;;;;;;;6.30;2.70;;;;;;;;;;4993283;28;20027;-80
2023/09/14 11:54:51;;;;;;;5.97;2.73;;;;;;;;;;4970032;28;20033;-81
2023/09/14 11:57:17;;;;;;;4.35;2.28;;;;;;;;;;4969040;28;20482;-93
2023/09/14 11:59:42;;;;;;;4.47;2.15;;;;;;;;;;4989220;28;20525;-93
2023/09/14 12:02:08;;;;;;;4.15;1.83;;;;;;;;;;4974927;28;20046;-89
2023/09/14 12:04:37;;;;;;;4.95;3.00;;;;;;;;;;4984431;28;20030;-93
2023/09/14 12:07:03;;;;;;;6.25;2.70;;;;;;;;;;4989897;28;20471;-91
2023/09/14 12:09:40;;;;;;;6.53;3.53;;;;;;;;;;4970111;28;20401;-94
2023/09/14 12:12:06;;;;;;;4.35;2.50;;;;;;;;;;4970358;28;20050;-90
2023/09/14 12:14:39;;;;;;;4.43;2.60;;;;;;;;;;4988687;28;20383;-81
2023/09/14 12:17:21;;;;;;;;;;;;;;;;;;4972392;28;20120;-80
2023/09/14 12:19:50;;;;;;;5.90;2.28;;;;;;;;;;4975994;28;20018;-79
2023/09/14 12:22:17;;;;;;;4.38;1.73;;;;;;;;;;4970959;28;20056;-82
2023/09/14 12:24:44;;;;;;;3.75;2.08;;;;;;;;;;4970136;28;20042;-80
2023/09/14 12:27:10;;;;;;;4.93;2.80;;;;;;;;;;4966250;28;20030;-80
2023/09/14 12:29:36;;;;;;;6.03;2.53;;;;;;;;;;4963895;28;20414;-80
2023/09/14 12:32:02;;;;;;;4.22;2.35;;;;;;;;;;4973147;28;20030;-79
2023/09/14 12:34:27;;;;;;;5.53;2.92;;;;;;;;;;4970105;28;20038;-79
2023/09/14 12:36:53;;;;;;;4.32;2.40;;;;;;;;;;4987474;28;20034;-81
2023/09/14 12:39:20;;;;;;;6.65;3.30;;;;;;;;;;4968984;28;20084;-80
2023/09/14 12:41:51;;;;;;;8.00;3.50;;;;;;;;;;4988992;28;20033;-79
2023/09/14 12:44:18;;;;;;;5.57;3.47;;;;;;;;;;4968787;28;20413;-81
2023/09/14 12:46:44;;;;;;;6.25;3.67;;;;;;;;;;4992877;28;20033;-80
2023/09/14 12:49:13;;;;;;;5.15;2.88;;;;;;;;;;4974201;28;20040;-79
2023/09/14 12:51:48;;;;;;;5.82;3.10;;;;;;;;;;4986131;28;20058;-80
2023/09/14 12:54:16;;;;;;;6.47;3.15;;;;;;;;;;4963672;28;20080;-82
2023/09/14 12:56:43;;;;;;;5.50;2.72;;;;;;;;;;4967472;28;20026;-80
2023/09/14 12:59:08;;;;;;;7.63;3.55;;;;;;;;;;4986461;28;20026;-80
2023/09/14 13:01:38;;;;;;;5.53;3.45;;;;;;;;;;4968296;28;20022;-82
2023/09/14 13:04:03;;;;;;;6.95;3.08;;;;;;;;;;4967213;28;20035;-81
2023/09/14 13:06:32;;;;;;;6.57;2.90;;;;;;;;;;4979338;28;20033;-92
2023/09/14 13:08:58;;;;;;;6.07;2.90;;;;;;;;;;4986031;28;20404;-91
2023/09/14 13:11:26;;;;;;;4.75;2.30;;;;;;;;;;4986661;28;20014;-84
2023/09/14 13:13:52;;;;;;;4.82;2.53;;;;;;;;;;4976540;28;20483;-84
2023/09/14 13:16:18;;;;;;;5.63;2.80;;;;;;;;;;4970275;28;20052;-84
2023/09/14 13:18:44;;;;;;;5.32;2.67;;;;;;;;;;4973660;28;20034;-84
2023/09/14 13:21:09;;;;;;;5.25;2.67;;;;;;;;;;4986428;28;20382;-84
2023/09/14 13:23:35;;;;;;;4.78;2.80;;;;;;;;;;4974837;28;20486;-80
2023/09/14 13:26:00;;;;;;;5.47;2.70;;;;;;;;;;4989221;28;20038;-79
2023/09/14 13:28:26;;;;;;;7.70;2.70;;;;;;;;;;4985995;28;20070;-80
2023/09/14 13:30:51;;;;;;;6.80;3.05;;;;;;;;;;4962550;28;20022;-79
2023/09/14 13:33:16;;;;;;;5.82;2.60;;;;;;;;;;4966949;28;20431;-79
2023/09/14 13:35:42;;;;;;;6.85;2.50;;;;;;;;;;4982165;28;20025;-79
2023/09/14 13:38:08;;;;;;;4.47;2.70;;;;;;;;;;4972815;28;20112;-79
2023/09/14 13:40:33;;;;;;;6.53;2.70;;;;;;;;;;4968837;28;20030;-79
2023/09/14 13:43:03;;;;;;;4.47;2.45;;;;;;;;;;4970170;28;20026;-79
2023/09/14 13:45:29;;;;;;;5.30;2.47;;;;;;;;;;4973207;28;20026;-88
2023/09/14 13:47:55;;;;;;;6.78;2.80;;;;;;;;;;4997819;28;20125;-88
2023/09/14 13:50:22;;;;;;;3.83;2.17;;;;;;;;;;4967699;28;20514;-88
2023/09/14 13:52:49;;;;;;;8.65;2.50;;;;;;;;;;4985582;28;20081;-88
2023/09/14 13:55:15;;;;;;;5.95;2.60;;;;;;;;;;4982277;28;20037;-87
2023/09/14 13:57:41;;;;;;;5.70;2.55;;;;;;;;;;4965605;28;20389;-87
2023/09/14 14:00:10;;;;;;;5.50;2.60;;;;;;;;;;4974531;28;20378;-87
2023/09/14 14:02:40;;;;;;;4.20;2.20;;;;;;;;;;4966332;28;20084;-87
2023/09/14 14:05:06;;;;;;;5.53;2.40;;;;;;;;;;4971631;28;20121;-88
2023/09/14 14:07:32;;;;;;;4.53;2.45;;;;;;;;;;4982963;28;20109;-87
2023/09/14 14:09:57;;;;;;;3.40;1.92;;;;;;;;;;4992665;28;20138;-80
2023/09/14 14:12:22;;;;;;;6.30;3.10;;;;;;;;;;4970029;28;20034;-80
2023/09/14 14:14:48;;;;;;;6.25;3.42;;;;;;;;;;4964112;28;20475;-80
2023/09/14 14:17:14;;;;;;;4.97;2.40;;;;;;;;;;4990638;28;20014;-87
2023/09/14 14:19:39;;;;;;;6.25;3.60;;;;;;;;;;4984644;28;20027;-87
2023/09/14 14:22:04;;;;;;;5.97;3.17;;;;;;;;;;4963268;28;20019;-87
2023/09/14 14:24:31;;;;;;;7.00;3.55;;;;;;;;;;4961849;28;20034;-82
2023/09/14 14:26:58;;;;;;;5.10;2.53;;;;;;;;;;4962245;28;20647;-87
2023/09/14 14:29:23;;;;;;;5.57;2.80;;;;;;;;;;4940126;28;20121;-85
2023/09/14 14:31:49;;;;;;;6.68;3.50;;;;;;;;;;4978930;28;20109;-88
2023/09/14 14:34:15;;;;;;;6.60;2.95;;;;;;;;;;4966482;28;20463;-88
2023/09/14 14:36:42;;;;;;;5.05;2.30;;;;;;;;;;4970746;28;20030;-87
2023/09/14 14:39:08;;;;;;;5.07;2.80;;;;;;;;;;4973445;28;20101;-87
2023/09/14 14:41:33;;;;;;;6.10;3.55;;;;;;;;;;4966488;28;20023;-87
2023/09/14 14:43:58;;;;;;;6.20;3.35;;;;;;;;;;4965782;28;20030;-87